Jiggs, Nevada
Current Conditions -  °F | °C
As of 2:56 PM on Monday 24 Nov 2014 (Local Time) from KEKO Reporting Station
Clear Clear  
Wind Chill: 37°   Ceiling: Unl
Heat Index: 42°   Visibility: 10mi
Dew Point: 21°   Wind: 8mph
Humidity: 43%   Direction: 240°WSW
Pressure: 30.42"   Gusts: NA
Location:  40.5527°N, 115.577°W
Report Text: KEKO 242256Z AUTO 24007KT 10SM CLR 06/M06 A3042 RMK AO2 SLP320 T00561061
Loading
Personal Weather Stations






























Interactive Weather Map New forecast layout! Learn more

10-Day Weather Forecast

Advertisements
Track Severe Weather on mobile